Agios Georgios I — SX9857 — position and weather

sailwx.info

Track history (hours):
 
Tides and Currents Weather Stations Pressure Air Temp Water Temp Dewpoint Dewpoint Depression Visibility Wind Speed Wind Dir Waves Ship Positions

Agios Georgios I

Last reported at 2015-Aug-03 08:33 UTC. Time now 2015-Aug-03 08:42 UTC.
Position N 37°57' E 023°35'.

Length 59 m; draft 5 m.

Type: Ship (hazmat cat B). MMSI: 239912000.

Date/timePositionNaut miles runAvg speedWind from/ knotsBaromVisibWave heightAir tempDewpointWater temp
2015-Aug-03 08:33N 37°57' E 023°35'0 0.0
2015-Aug-03 07:33N 37°57' E 023°35'2 1.9
2015-Aug-03 06:33N 37°55' E 023°35'8 8.5
2015-Aug-03 05:33N 37°48' E 023°40'8 8.2
2015-Aug-03 04:33N 37°41' E 023°45'56 7.7
2015-Aug-02 21:22N 37°11' E 024°44'7 8.2
2015-Aug-02 20:30N 37°09' E 024°52'7 7.8
2015-Aug-02 19:33N 37°07' E 025°02'6 6.3
2015-Aug-02 18:33N 37°05' E 025°09'0 0.0
2015-Aug-02 17:32N 37°05' E 025°09'0 0.0
2015-Aug-02 16:32N 37°05' E 025°09'0 0.0
2015-Aug-02 15:29N 37°05' E 025°09'0 0.0
2015-Aug-02 14:33N 37°05' E 025°09'0 0.0
2015-Aug-02 13:32N 37°05' E 025°09'0 0.0
2015-Aug-02 12:33N 37°05' E 025°09'0 0.0
2015-Aug-02 11:17N 37°05' E 025°09'0 0.0
2015-Aug-02 10:32N 37°05' E 025°09'0 0.0
2015-Aug-02 09:33N 37°05' E 025°09'0 0.0
2015-Aug-02 08:33N 37°05' E 025°09'0 0.0
2015-Aug-02 07:31N 37°05' E 025°09'0 0.0
2015-Aug-02 06:33N 37°05' E 025°09'0 0.0
2015-Aug-02 05:32N 37°05' E 025°09'0 0.0
2015-Aug-02 04:33N 37°05' E 025°09'1 0.6
2015-Aug-02 03:32N 37°06' E 025°08'0 0.1
2015-Aug-02 02:33N 37°06' E 025°08'0 0.0
2015-Aug-02 01:32N 37°06' E 025°08'0 0.0
2015-Aug-02 00:33N 37°06' E 025°08'0 0.0
2015-Aug-01 23:33N 37°06' E 025°08'0 0.0
2015-Aug-01 22:33N 37°06' E 025°08'0 0.0
2015-Aug-01 21:31N 37°06' E 025°08'0 0.0
2015-Aug-01 20:26N 37°06' E 025°08'0 0.0
2015-Aug-01 19:32N 37°06' E 025°08'0 0.0
2015-Aug-01 18:33N 37°06' E 025°08'0 0.0
2015-Aug-01 17:32N 37°06' E 025°08'0 0.0
2015-Aug-01 16:33N 37°06' E 025°08'6 6.4
2015-Aug-01 15:33N 37°11' E 025°05'9 8.7
2015-Aug-01 14:33N 37°20' E 025°02'8 7.5
2015-Aug-01 13:32N 37°26' E 024°56'0 0.0
2015-Aug-01 12:32N 37°26' E 024°56'0 0.0
2015-Aug-01 11:33N 37°26' E 024°56'0 0.0
2015-Aug-01 10:32N 37°26' E 024°56'0 0.0
2015-Aug-01 09:32N 37°26' E 024°56'0 0.0
2015-Aug-01 08:32N 37°26' E 024°56'0 0.0
2015-Aug-01 07:33N 37°26' E 024°56'0 0.0
2015-Aug-01 06:33N 37°26' E 024°56'0 0.0
2015-Aug-01 05:32N 37°26' E 024°56'0 0.0
2015-Aug-01 04:32N 37°26' E 024°56'0 0.0
2015-Aug-01 03:33N 37°26' E 024°56'0 0.0
2015-Aug-01 02:33N 37°26' E 024°56'0 0.0
2015-Aug-01 01:32N 37°26' E 024°56'3 3.2
2015-Aug-01 00:33N 37°29' E 024°58'  
2015-Jul-27 11:28N 37°54' E 026°30'8 8.7
2015-Jul-27 10:33N 37°49' E 026°39'2 1.2
2015-Jul-27 08:33N 37°48' E 026°41'0 0.0
2015-Jul-27 07:32N 37°48' E 026°41'0 0.0
2015-Jul-27 06:33N 37°48' E 026°41'0 0.0
2015-Jul-27 05:31N 37°48' E 026°41'22 7.5
2015-Jul-27 02:33N 37°43' E 026°14'7 6.7
2015-Jul-27 01:33N 37°41' E 026°05'6 6.3
2015-Jul-27 00:33N 37°40' E 025°58'7 6.9
2015-Jul-26 23:33N 37°38' E 025°49'7 7.1
2015-Jul-26 22:33N 37°36' E 025°41'7 7.2
2015-Jul-26 21:33N 37°34' E 025°32'7 7.3
2015-Jul-26 20:33N 37°31' E 025°23'5 4.8
2015-Jul-26 19:34N 37°28' E 025°20'0 0.1
2015-Jul-26 18:33N 37°28' E 025°20'0 0.0
2015-Jul-26 17:33N 37°28' E 025°20'0 0.0
2015-Jul-26 16:33N 37°28' E 025°20'0 0.0
2015-Jul-26 15:33N 37°28' E 025°20'0 0.2
2015-Jul-26 14:33N 37°28' E 025°19'9 8.9
2015-Jul-26 13:33N 37°27' E 025°08'9 9.0
2015-Jul-26 12:33N 37°26' E 024°57'0 0.4
2015-Jul-26 11:33N 37°26' E 024°56'0 0.0
2015-Jul-26 10:33N 37°26' E 024°56'0 0.0
2015-Jul-26 09:33N 37°26' E 024°56'0 0.0
2015-Jul-26 08:33N 37°26' E 024°56'0 0.0
2015-Jul-26 07:33N 37°26' E 024°56'0 0.0
2015-Jul-26 06:33N 37°26' E 024°56'0 0.0
2015-Jul-26 05:33N 37°26' E 024°56'0 0.0
2015-Jul-26 04:33N 37°26' E 024°56'0 0.0
2015-Jul-26 03:33N 37°26' E 024°56'2 2.5
2015-Jul-26 02:33N 37°28' E 024°58'7 7.3
2015-Jul-26 01:33N 37°32' E 024°50'25 7.9
2015-Jul-25 22:23N 37°31' E 024°18'24 8.4
2015-Jul-25 19:30N 37°38' E 023°48'7 7.5
2015-Jul-25 18:33N 37°42' E 023°41'8 8.5
2015-Jul-25 17:33N 37°50' E 023°37'8 7.8
2015-Jul-25 16:33N 37°57' E 023°35'0 0.1
2015-Jul-25 15:33N 37°57' E 023°35'0 0.0
2015-Jul-25 14:33N 37°57' E 023°35'0 0.0
2015-Jul-25 13:33N 37°57' E 023°35'0 0.0
2015-Jul-25 12:33N 37°57' E 023°35'0 0.0
2015-Jul-25 11:33N 37°57' E 023°35'0 0.0
2015-Jul-25 10:33N 37°57' E 023°35'0 0.0
2015-Jul-25 09:33N 37°57' E 023°35'0 0.0
2015-Jul-25 08:33N 37°57' E 023°35'0 0.0
2015-Jul-25 07:33N 37°57' E 023°35'0 0.0
2015-Jul-25 06:33N 37°57' E 023°35'0 0.0
2015-Jul-25 05:33N 37°57' E 023°35'0 0.0
2015-Jul-25 04:33N 37°57' E 023°35'6 5.9
2015-Jul-25 03:33N 37°52' E 023°37'8 8.4
2015-Jul-25 02:33N 37°45' E 023°43'8 8.3
2015-Jul-25 01:33N 37°39' E 023°50'43 8.5
2015-Jul-24 20:30N 37°31' E 024°44'10 8.6
2015-Jul-24 19:23N 37°31' E 024°56'5 5.9
2015-Jul-24 18:33N 37°26' E 024°57'0 0.0
2015-Jul-24 17:33N 37°26' E 024°57'0 0.0
2015-Jul-24 16:33N 37°26' E 024°57'0 0.0
2015-Jul-24 15:34N 37°26' E 024°57'0 0.0
2015-Jul-24 14:33N 37°26' E 024°57'0 0.0
2015-Jul-24 13:33N 37°26' E 024°57'0 0.0
2015-Jul-24 12:33N 37°26' E 024°57'0 0.0
2015-Jul-24 11:33N 37°26' E 024°57'0 0.0
2015-Jul-24 10:33N 37°26' E 024°57'0 0.0
2015-Jul-24 09:33N 37°26' E 024°57'0 0.0
2015-Jul-24 08:33N 37°26' E 024°57'  
Track history (hours):
 
Tides and Currents Weather Stations Pressure Air Temp Water Temp Dewpoint Dewpoint Depression Visibility Wind Speed Wind Dir Waves Ship Positions

Agios Georgios I

Last reported at 2015-Aug-03 08:33 UTC. Time now 2015-Aug-03 08:42 UTC.
Position N 37°57' E 023°35'.

Length 59 m; draft 5 m.

Type: Ship (hazmat cat B). MMSI: 239912000.

Date/timePositionNaut miles runAvg speedWind from/ knotsBaromVisibWave heightAir tempDewpointWater temp
2015-Aug-03 08:33N 37°57' E 023°35'0 0.0
2015-Aug-03 07:33N 37°57' E 023°35'2 1.9
2015-Aug-03 06:33N 37°55' E 023°35'8 8.5
2015-Aug-03 05:33N 37°48' E 023°40'8 8.2
2015-Aug-03 04:33N 37°41' E 023°45'56 7.7
2015-Aug-02 21:22N 37°11' E 024°44'7 8.2
2015-Aug-02 20:30N 37°09' E 024°52'7 7.8
2015-Aug-02 19:33N 37°07' E 025°02'6 6.3
2015-Aug-02 18:33N 37°05' E 025°09'0 0.0
2015-Aug-02 17:32N 37°05' E 025°09'0 0.0
2015-Aug-02 16:32N 37°05' E 025°09'0 0.0
2015-Aug-02 15:29N 37°05' E 025°09'0 0.0
2015-Aug-02 14:33N 37°05' E 025°09'0 0.0
2015-Aug-02 13:32N 37°05' E 025°09'0 0.0
2015-Aug-02 12:33N 37°05' E 025°09'0 0.0
2015-Aug-02 11:17N 37°05' E 025°09'0 0.0
2015-Aug-02 10:32N 37°05' E 025°09'0 0.0
2015-Aug-02 09:33N 37°05' E 025°09'0 0.0
2015-Aug-02 08:33N 37°05' E 025°09'0 0.0
2015-Aug-02 07:31N 37°05' E 025°09'0 0.0
2015-Aug-02 06:33N 37°05' E 025°09'0 0.0
2015-Aug-02 05:32N 37°05' E 025°09'0 0.0
2015-Aug-02 04:33N 37°05' E 025°09'1 0.6
2015-Aug-02 03:32N 37°06' E 025°08'0 0.1
2015-Aug-02 02:33N 37°06' E 025°08'0 0.0
2015-Aug-02 01:32N 37°06' E 025°08'0 0.0
2015-Aug-02 00:33N 37°06' E 025°08'0 0.0
2015-Aug-01 23:33N 37°06' E 025°08'0 0.0
2015-Aug-01 22:33N 37°06' E 025°08'0 0.0
2015-Aug-01 21:31N 37°06' E 025°08'0 0.0
2015-Aug-01 20:26N 37°06' E 025°08'0 0.0
2015-Aug-01 19:32N 37°06' E 025°08'0 0.0
2015-Aug-01 18:33N 37°06' E 025°08'0 0.0
2015-Aug-01 17:32N 37°06' E 025°08'0 0.0
2015-Aug-01 16:33N 37°06' E 025°08'6 6.4
2015-Aug-01 15:33N 37°11' E 025°05'9 8.7
2015-Aug-01 14:33N 37°20' E 025°02'8 7.5
2015-Aug-01 13:32N 37°26' E 024°56'0 0.0
2015-Aug-01 12:32N 37°26' E 024°56'0 0.0
2015-Aug-01 11:33N 37°26' E 024°56'0 0.0
2015-Aug-01 10:32N 37°26' E 024°56'0 0.0
2015-Aug-01 09:32N 37°26' E 024°56'0 0.0
2015-Aug-01 08:32N 37°26' E 024°56'0 0.0
2015-Aug-01 07:33N 37°26' E 024°56'0 0.0
2015-Aug-01 06:33N 37°26' E 024°56'0 0.0
2015-Aug-01 05:32N 37°26' E 024°56'0 0.0
2015-Aug-01 04:32N 37°26' E 024°56'0 0.0
2015-Aug-01 03:33N 37°26' E 024°56'0 0.0
2015-Aug-01 02:33N 37°26' E 024°56'0 0.0
2015-Aug-01 01:32N 37°26' E 024°56'3 3.2
2015-Aug-01 00:33N 37°29' E 024°58'  
2015-Jul-27 11:28N 37°54' E 026°30'8 8.7
2015-Jul-27 10:33N 37°49' E 026°39'2 1.2
2015-Jul-27 08:33N 37°48' E 026°41'0 0.0
2015-Jul-27 07:32N 37°48' E 026°41'0 0.0
2015-Jul-27 06:33N 37°48' E 026°41'0 0.0
2015-Jul-27 05:31N 37°48' E 026°41'22 7.5
2015-Jul-27 02:33N 37°43' E 026°14'7 6.7
2015-Jul-27 01:33N 37°41' E 026°05'6 6.3
2015-Jul-27 00:33N 37°40' E 025°58'7 6.9
2015-Jul-26 23:33N 37°38' E 025°49'7 7.1
2015-Jul-26 22:33N 37°36' E 025°41'7 7.2
2015-Jul-26 21:33N 37°34' E 025°32'7 7.3
2015-Jul-26 20:33N 37°31' E 025°23'5 4.8
2015-Jul-26 19:34N 37°28' E 025°20'0 0.1
2015-Jul-26 18:33N 37°28' E 025°20'0 0.0
2015-Jul-26 17:33N 37°28' E 025°20'0 0.0
2015-Jul-26 16:33N 37°28' E 025°20'0 0.0
2015-Jul-26 15:33N 37°28' E 025°20'0 0.2
2015-Jul-26 14:33N 37°28' E 025°19'9 8.9
2015-Jul-26 13:33N 37°27' E 025°08'9 9.0
2015-Jul-26 12:33N 37°26' E 024°57'0 0.4
2015-Jul-26 11:33N 37°26' E 024°56'0 0.0
2015-Jul-26 10:33N 37°26' E 024°56'0 0.0
2015-Jul-26 09:33N 37°26' E 024°56'0 0.0
2015-Jul-26 08:33N 37°26' E 024°56'0 0.0
2015-Jul-26 07:33N 37°26' E 024°56'0 0.0
2015-Jul-26 06:33N 37°26' E 024°56'0 0.0
2015-Jul-26 05:33N 37°26' E 024°56'0 0.0
2015-Jul-26 04:33N 37°26' E 024°56'0 0.0
2015-Jul-26 03:33N 37°26' E 024°56'2 2.5
2015-Jul-26 02:33N 37°28' E 024°58'7 7.3
2015-Jul-26 01:33N 37°32' E 024°50'25 7.9
2015-Jul-25 22:23N 37°31' E 024°18'24 8.4
2015-Jul-25 19:30N 37°38' E 023°48'7 7.5
2015-Jul-25 18:33N 37°42' E 023°41'8 8.5
2015-Jul-25 17:33N 37°50' E 023°37'8 7.8
2015-Jul-25 16:33N 37°57' E 023°35'0 0.1
2015-Jul-25 15:33N 37°57' E 023°35'0 0.0
2015-Jul-25 14:33N 37°57' E 023°35'0 0.0
2015-Jul-25 13:33N 37°57' E 023°35'0 0.0
2015-Jul-25 12:33N 37°57' E 023°35'0 0.0
2015-Jul-25 11:33N 37°57' E 023°35'0 0.0
2015-Jul-25 10:33N 37°57' E 023°35'0 0.0
2015-Jul-25 09:33N 37°57' E 023°35'0 0.0
2015-Jul-25 08:33N 37°57' E 023°35'0 0.0
2015-Jul-25 07:33N 37°57' E 023°35'0 0.0
2015-Jul-25 06:33N 37°57' E 023°35'0 0.0
2015-Jul-25 05:33N 37°57' E 023°35'0 0.0
2015-Jul-25 04:33N 37°57' E 023°35'6 5.9
2015-Jul-25 03:33N 37°52' E 023°37'8 8.4
2015-Jul-25 02:33N 37°45' E 023°43'8 8.3
2015-Jul-25 01:33N 37°39' E 023°50'43 8.5
2015-Jul-24 20:30N 37°31' E 024°44'10 8.6
2015-Jul-24 19:23N 37°31' E 024°56'5 5.9
2015-Jul-24 18:33N 37°26' E 024°57'0 0.0
2015-Jul-24 17:33N 37°26' E 024°57'0 0.0
2015-Jul-24 16:33N 37°26' E 024°57'0 0.0
2015-Jul-24 15:34N 37°26' E 024°57'0 0.0
2015-Jul-24 14:33N 37°26' E 024°57'0 0.0
2015-Jul-24 13:33N 37°26' E 024°57'0 0.0
2015-Jul-24 12:33N 37°26' E 024°57'0 0.0
2015-Jul-24 11:33N 37°26' E 024°57'0 0.0
2015-Jul-24 10:33N 37°26' E 024°57'0 0.0
2015-Jul-24 09:33N 37°26' E 024°57'0 0.0
2015-Jul-24 08:33N 37°26' E 024°57'  

Dump ship's entire track history